createdAt,value
2018-03-25T00:01:57.120Z,8.23
2018-03-25T00:04:26.890Z,7.17
2018-03-25T00:06:55.807Z,8.00
2018-03-25T00:09:24.883Z,7.30
2018-03-25T00:11:53.842Z,8.27
2018-03-25T00:14:22.867Z,7.20
2018-03-25T00:16:52.715Z,8.93
2018-03-25T00:19:22.026Z,8.00
2018-03-25T00:21:51.118Z,6.77
2018-03-25T00:24:20.319Z,7.10
2018-03-25T00:26:49.347Z,6.70
2018-03-25T00:29:18.444Z,8.60
2018-03-25T00:31:47.444Z,8.27
2018-03-25T00:34:16.568Z,7.30
2018-03-25T00:36:46.271Z,6.67
2018-03-25T00:39:15.543Z,6.10
2018-03-25T00:41:44.536Z,7.03
2018-03-25T00:44:14.011Z,6.60
2018-03-25T00:46:43.011Z,6.77
2018-03-25T00:49:12.139Z,6.43
2018-03-25T00:51:41.207Z,7.10
2018-03-25T00:54:11.115Z,6.80
2018-03-25T00:56:40.211Z,7.60
2018-03-25T00:59:09.519Z,7.50
2018-03-25T01:01:38.538Z,6.97
2018-03-25T01:04:07.814Z,6.77
2018-03-25T01:06:36.811Z,8.40
2018-03-25T01:09:06.175Z,8.13
2018-03-25T01:11:35.193Z,6.90
2018-03-25T01:14:04.267Z,6.60
2018-03-25T01:16:33.283Z,7.07
2018-03-25T01:19:03.218Z,5.70
2018-03-25T01:21:32.810Z,6.90
2018-03-25T01:24:01.923Z,6.53
2018-03-25T01:26:30.900Z,6.80
2018-03-25T01:28:59.907Z,6.30
2018-03-25T01:31:28.887Z,6.37
2018-03-25T01:33:57.994Z,7.27
2018-03-25T01:36:26.878Z,6.43
2018-03-25T01:38:55.982Z,6.60
2018-03-25T01:41:24.866Z,5.83
2018-03-25T01:43:54.073Z,6.90
2018-03-25T01:46:23.546Z,6.20
2018-03-25T01:48:52.811Z,6.70
2018-03-25T01:51:22.089Z,6.50
2018-03-25T01:53:51.794Z,6.13
2018-03-25T01:56:21.262Z,6.90
2018-03-25T01:58:51.183Z,7.73
2018-03-25T02:01:21.161Z,7.10
2018-03-25T02:03:50.438Z,7.17
2018-03-25T02:06:19.434Z,7.43
2018-03-25T02:08:48.535Z,6.87
2018-03-25T02:11:17.555Z,7.30
2018-03-25T02:13:46.863Z,7.30
2018-03-25T02:16:15.850Z,6.63
2018-03-25T02:18:44.987Z,6.33
2018-03-25T02:21:14.867Z,6.10
2018-03-25T02:23:44.035Z,6.93
2018-03-25T02:26:13.834Z,6.13
2018-03-25T02:28:43.254Z,7.10
2018-03-25T02:31:12.379Z,7.10
2018-03-25T02:33:41.659Z,7.00
2018-03-25T02:36:10.756Z,7.03
2018-03-25T02:38:40.883Z,7.50
2018-03-25T02:41:09.991Z,7.90
2018-03-25T02:43:39.268Z,6.77
2018-03-25T02:46:08.366Z,7.30
2018-03-25T02:48:39.159Z,6.43
2018-03-25T02:51:09.048Z,7.30
2018-03-25T02:53:38.320Z,7.90
2018-03-25T02:56:07.411Z,5.83
2018-03-25T02:58:36.847Z,6.63
2018-03-25T03:01:05.812Z,7.33
2018-03-25T03:03:35.115Z,6.67
2018-03-25T03:06:04.216Z,8.20
2018-03-25T03:08:34.237Z,7.20
2018-03-25T03:11:03.875Z,8.67
2018-03-25T03:13:33.074Z,7.80
2018-03-25T03:16:02.982Z,6.97
2018-03-25T03:18:32.263Z,8.07
2018-03-25T03:21:02.158Z,8.93
2018-03-25T03:23:31.471Z,7.70
2018-03-25T03:26:00.598Z,7.17
2018-03-25T03:28:29.571Z,8.80
2018-03-25T03:30:58.668Z,7.13
2018-03-25T03:33:28.743Z,7.90
2018-03-25T03:35:57.879Z,7.30
2018-03-25T03:38:27.183Z,7.47
2018-03-25T03:40:56.306Z,7.80
2018-03-25T03:43:25.508Z,6.90
2018-03-25T03:45:54.508Z,7.83
2018-03-25T03:48:23.763Z,8.47
2018-03-25T03:50:53.798Z,8.20
2018-03-25T03:53:23.030Z,9.27
2018-03-25T03:55:52.034Z,8.00
2018-03-25T03:58:21.171Z,8.03
2018-03-25T04:00:51.000Z,9.07
2018-03-25T04:03:20.204Z,9.67
2018-03-25T04:05:49.195Z,9.50
2018-03-25T04:08:18.498Z,10.77
2018-03-25T04:10:48.411Z,9.27
2018-03-25T04:13:18.291Z,10.77
2018-03-25T04:15:47.207Z,11.47
2018-03-25T04:18:16.317Z,9.27
2018-03-25T04:20:46.055Z,10.13
2018-03-25T04:23:15.335Z,10.30
2018-03-25T04:25:44.327Z,10.07
2018-03-25T04:28:13.662Z,9.70
2018-03-25T04:30:42.511Z,9.90
2018-03-25T04:33:12.568Z,8.20
2018-03-25T04:35:41.559Z,8.80
2018-03-25T04:38:10.758Z,9.07
2018-03-25T04:40:39.756Z,9.47
2018-03-25T04:43:09.027Z,8.20
2018-03-25T04:45:38.059Z,10.40
2018-03-25T04:48:07.259Z,9.43
2018-03-25T04:50:36.250Z,10.20
2018-03-25T04:53:05.383Z,9.00
2018-03-25T04:55:34.395Z,8.90
2018-03-25T04:58:03.463Z,9.60
2018-03-25T05:00:32.395Z,8.57
2018-03-25T05:03:02.424Z,10.87
2018-03-25T05:05:32.114Z,9.20
2018-03-25T05:08:01.127Z,9.87
2018-03-25T05:10:30.103Z,9.43
2018-03-25T05:12:59.075Z,8.63
2018-03-25T05:15:28.959Z,9.73
2018-03-25T05:17:58.230Z,8.87
2018-03-25T05:20:27.218Z,8.70
2018-03-25T05:22:56.453Z,8.17
2018-03-25T05:25:25.415Z,7.90
2018-03-25T05:27:54.579Z,9.03
2018-03-25T05:30:23.511Z,9.33
2018-03-25T05:32:52.671Z,9.23
2018-03-25T05:35:21.630Z,8.43
2018-03-25T05:37:50.736Z,9.20
2018-03-25T05:40:19.722Z,8.17
2018-03-25T05:42:48.851Z,9.67
2018-03-25T05:45:17.771Z,8.90
2018-03-25T05:47:46.878Z,10.00
2018-03-25T05:50:15.759Z,8.30
2018-03-25T05:52:44.862Z,7.23
2018-03-25T05:55:13.955Z,7.63
2018-03-25T05:57:42.960Z,7.73
2018-03-25T06:00:11.938Z,7.20
2018-03-25T06:02:40.947Z,8.87
2018-03-25T06:05:09.934Z,9.23
2018-03-25T06:07:38.998Z,9.00
2018-03-25T06:10:07.919Z,10.63
2018-03-25T06:12:38.527Z,8.63
2018-03-25T06:15:07.491Z,9.97
2018-03-25T06:17:37.067Z,10.03
2018-03-25T06:20:06.530Z,10.30
2018-03-25T06:22:35.798Z,10.33
2018-03-25T06:25:04.867Z,10.80
2018-03-25T06:27:34.067Z,10.17
2018-03-25T06:30:03.163Z,10.13
2018-03-25T06:32:32.299Z,9.67
2018-03-25T06:35:01.286Z,10.00
2018-03-25T06:37:30.389Z,9.97
2018-03-25T06:39:59.383Z,10.63
2018-03-25T06:42:28.406Z,9.80
2018-03-25T06:44:57.371Z,9.70
2018-03-25T06:47:27.279Z,8.33
2018-03-25T06:49:56.379Z,10.60
2018-03-25T06:52:25.550Z,9.93
2018-03-25T06:54:54.654Z,9.97
2018-03-25T06:57:24.506Z,11.13
2018-03-25T06:59:53.831Z,9.83
2018-03-25T07:02:23.639Z,10.60
2018-03-25T07:04:53.487Z,10.50
2018-03-25T07:07:22.795Z,9.60
2018-03-25T07:09:51.786Z,9.67
2018-03-25T07:12:21.095Z,9.40
2018-03-25T07:14:50.114Z,9.67
2018-03-25T07:17:19.180Z,9.70
2018-03-25T07:19:48.207Z,11.40
2018-03-25T07:22:17.304Z,9.83
2018-03-25T07:24:47.052Z,10.47
2018-03-25T07:27:17.045Z,10.23
2018-03-25T07:29:46.026Z,11.20
2018-03-25T07:32:15.154Z,10.70
2018-03-25T07:34:45.035Z,10.03
2018-03-25T07:37:14.211Z,10.27
2018-03-25T07:39:43.808Z,9.67
2018-03-25T07:42:13.205Z,10.10
2018-03-25T07:44:42.415Z,9.93
2018-03-25T07:47:13.080Z,9.03
2018-03-25T07:49:42.175Z,9.00
2018-03-25T07:52:11.978Z,9.23
2018-03-25T07:54:41.857Z,10.10
2018-03-25T07:57:11.667Z,10.70
2018-03-25T07:59:41.608Z,10.73
2018-03-25T08:02:10.849Z,10.60
2018-03-25T08:04:39.903Z,9.23
2018-03-25T08:07:08.899Z,9.57
2018-03-25T08:09:37.927Z,9.57
2018-03-25T08:12:07.122Z,9.97
2018-03-25T08:14:36.194Z,10.07
2018-03-25T08:17:06.102Z,10.83
2018-03-25T08:19:35.199Z,9.03
2018-03-25T08:22:04.426Z,10.33
2018-03-25T08:24:33.423Z,10.13
2018-03-25T08:27:02.703Z,9.93
2018-03-25T08:29:31.695Z,10.03
2018-03-25T08:32:00.926Z,8.90
2018-03-25T08:34:29.921Z,10.27
2018-03-25T08:36:59.047Z,9.40
2018-03-25T08:39:28.922Z,9.60
2018-03-25T08:41:58.338Z,10.37
2018-03-25T08:44:27.435Z,8.67
2018-03-25T08:46:56.558Z,9.13
2018-03-25T08:49:25.529Z,8.90
2018-03-25T08:51:54.475Z,10.30
2018-03-25T08:54:23.412Z,8.60
2018-03-25T08:56:52.539Z,10.33
2018-03-25T08:59:22.319Z,8.70
2018-03-25T09:01:51.819Z,8.53
2018-03-25T09:04:20.814Z,7.77
2018-03-25T09:06:49.987Z,9.17
2018-03-25T09:09:19.007Z,10.17
2018-03-25T09:11:48.179Z,10.00
2018-03-25T09:14:17.099Z,10.43
2018-03-25T09:16:46.378Z,11.23
2018-03-25T09:19:16.247Z,10.10
2018-03-25T09:21:45.543Z,9.27
2018-03-25T09:24:14.612Z,11.13
2018-03-25T09:26:43.711Z,11.90
2018-03-25T09:29:12.775Z,11.20
2018-03-25T09:31:41.983Z,11.40
2018-03-25T09:34:11.574Z,10.50
2018-03-25T09:36:41.606Z,10.47
2018-03-25T09:39:10.598Z,10.70
2018-03-25T09:41:40.784Z,9.80
2018-03-25T09:44:09.774Z,10.00
2018-03-25T09:46:39.015Z,11.33
2018-03-25T09:49:08.111Z,10.97
2018-03-25T09:51:37.239Z,11.77
2018-03-25T09:54:06.343Z,10.50
2018-03-25T09:56:35.515Z,10.73
2018-03-25T09:59:04.707Z,10.33
2018-03-25T10:01:35.704Z,10.70
2018-03-25T10:04:05.215Z,10.63
2018-03-25T10:06:34.484Z,10.37
2018-03-25T10:09:03.659Z,11.77
2018-03-25T10:11:32.661Z,10.00
2018-03-25T10:14:01.648Z,10.93
2018-03-25T10:16:30.880Z,11.20
2018-03-25T10:18:59.839Z,11.93
2018-03-25T10:21:29.098Z,11.30
2018-03-25T10:23:58.062Z,10.50
2018-03-25T10:26:27.195Z,7.90
2018-03-25T10:28:57.073Z,11.17
2018-03-25T10:31:26.247Z,10.87
2018-03-25T10:33:55.845Z,11.33
2018-03-25T10:36:24.849Z,10.83
2018-03-25T10:38:54.687Z,10.70
2018-03-25T10:41:23.863Z,10.00
2018-03-25T10:43:52.964Z,10.80
2018-03-25T10:46:22.870Z,11.77
2018-03-25T10:48:52.031Z,12.20
2018-03-25T10:51:21.300Z,9.37
2018-03-25T10:53:50.395Z,11.03
2018-03-25T10:56:19.570Z,10.77
2018-03-25T10:58:48.667Z,10.67
2018-03-25T11:01:18.679Z,11.23
2018-03-25T11:03:47.775Z,10.90
2018-03-25T11:06:17.287Z,10.60
2018-03-25T11:08:46.383Z,10.90
2018-03-25T11:11:15.515Z,11.07
2018-03-25T11:13:45.395Z,10.33
2018-03-25T11:16:14.699Z,9.20
2018-03-25T11:18:43.695Z,8.90
2018-03-25T11:21:13.003Z,10.13
2018-03-25T11:23:42.024Z,10.10
2018-03-25T11:26:11.224Z,10.23
2018-03-25T11:28:40.215Z,10.30
2018-03-25T11:31:09.349Z,9.17
2018-03-25T11:33:39.236Z,9.30
2018-03-25T11:36:08.499Z,8.93
2018-03-25T11:38:37.599Z,10.10
2018-03-25T11:41:06.890Z,9.13
2018-03-25T11:43:35.887Z,11.20
2018-03-25T11:46:05.154Z,9.50
2018-03-25T11:48:35.035Z,8.77
2018-03-25T11:51:04.311Z,10.60
2018-03-25T11:53:33.412Z,10.00
2018-03-25T11:56:02.539Z,8.53
2018-03-25T11:58:31.531Z,9.20
2018-03-25T12:01:00.527Z,9.63
2018-03-25T12:03:29.514Z,10.97
2018-03-25T12:05:58.647Z,9.60
2018-03-25T12:08:27.668Z,10.60
2018-03-25T12:10:56.735Z,9.30
2018-03-25T12:13:25.758Z,9.77
2018-03-25T12:15:54.863Z,9.97
2018-03-25T12:18:23.747Z,10.37
2018-03-25T12:20:52.855Z,10.13
2018-03-25T12:23:22.699Z,10.20
2018-03-25T12:25:51.767Z,10.60
2018-03-25T12:28:20.863Z,8.60
2018-03-25T12:30:50.866Z,8.67
2018-03-25T12:33:20.107Z,9.80
2018-03-25T12:35:49.383Z,8.90
2018-03-25T12:38:19.459Z,10.10
2018-03-25T12:40:48.727Z,10.03
2018-03-25T12:43:17.799Z,9.50
2018-03-25T12:45:47.978Z,10.50
2018-03-25T12:48:17.114Z,9.70
2018-03-25T12:50:46.895Z,9.77
2018-03-25T12:53:15.810Z,8.90
2018-03-25T12:55:45.938Z,9.97
2018-03-25T12:58:15.143Z,9.90
2018-03-25T13:00:44.035Z,8.70
2018-03-25T13:03:13.129Z,9.63
2018-03-25T13:05:42.262Z,9.50
2018-03-25T13:08:11.255Z,10.93
2018-03-25T13:10:40.427Z,11.17
2018-03-25T13:13:09.451Z,9.60
2018-03-25T13:15:38.579Z,10.13
2018-03-25T13:18:08.356Z,11.17
2018-03-25T13:20:37.530Z,9.27
2018-03-25T13:23:13.125Z,10.00
2018-03-25T13:25:44.091Z,9.80
2018-03-25T13:28:13.931Z,9.87
2018-03-25T13:30:43.173Z,9.83
2018-03-25T13:33:12.024Z,9.40
2018-03-25T13:35:41.263Z,10.47
2018-03-25T13:38:10.318Z,8.90
2018-03-25T13:40:39.584Z,8.37
2018-03-25T13:43:09.872Z,8.47
2018-03-25T13:45:38.970Z,10.00
2018-03-25T13:48:07.967Z,9.43
2018-03-25T13:50:37.095Z,9.90
2018-03-25T13:53:06.059Z,9.30
2018-03-25T13:55:35.082Z,9.80
2018-03-25T13:58:04.049Z,10.57
2018-03-25T14:00:33.181Z,8.67
2018-03-25T14:03:02.139Z,9.20
2018-03-25T14:05:31.267Z,8.47
2018-03-25T14:08:00.183Z,9.67
2018-03-25T14:10:29.442Z,11.23
2018-03-25T14:12:58.468Z,9.50
2018-03-25T14:15:28.055Z,10.40
2018-03-25T14:17:57.223Z,9.57
2018-03-25T14:20:26.607Z,9.83
2018-03-25T14:22:55.707Z,10.53
2018-03-25T14:25:25.814Z,10.60
2018-03-25T14:27:54.938Z,10.00
2018-03-25T14:30:24.214Z,10.40
2018-03-25T14:32:53.316Z,11.47
2018-03-25T14:35:22.443Z,10.47
2018-03-25T14:37:51.440Z,10.50
2018-03-25T14:40:20.571Z,11.50
2018-03-25T14:42:50.346Z,12.33
2018-03-25T14:45:19.618Z,12.10
2018-03-25T14:47:49.415Z,10.07
2018-03-25T14:50:18.691Z,10.50
2018-03-25T14:52:48.548Z,11.23
2018-03-25T14:55:17.779Z,11.23
2018-03-25T14:57:46.671Z,9.77
2018-03-25T15:00:15.799Z,10.40
2018-03-25T15:02:44.802Z,12.37
2018-03-25T15:05:13.887Z,10.40
2018-03-25T15:07:42.855Z,10.70
2018-03-25T15:10:11.915Z,10.60
2018-03-25T15:12:40.795Z,10.17
2018-03-25T15:15:10.927Z,10.80
2018-03-25T15:17:40.903Z,10.40
2018-03-25T15:20:10.144Z,9.63
2018-03-25T15:22:39.266Z,10.77
2018-03-25T15:25:08.367Z,11.23
2018-03-25T15:27:37.478Z,11.00
2018-03-25T15:30:06.638Z,10.37
2018-03-25T15:32:35.735Z,10.77
2018-03-25T15:35:04.727Z,11.03
2018-03-25T15:37:33.823Z,10.30
2018-03-25T15:40:02.987Z,10.47
2018-03-25T15:42:31.948Z,10.73
2018-03-25T15:45:01.153Z,10.40
2018-03-25T15:47:30.142Z,10.50
2018-03-25T15:49:59.266Z,9.57
2018-03-25T15:52:28.187Z,9.63
2018-03-25T15:54:57.294Z,9.03
2018-03-25T15:57:27.760Z,10.40
2018-03-25T15:59:56.791Z,8.33
2018-03-25T16:02:26.549Z,8.23
2018-03-25T16:04:55.735Z,8.50
2018-03-25T16:07:24.743Z,8.20
2018-03-25T16:09:54.023Z,8.33
2018-03-25T16:12:23.063Z,8.60
2018-03-25T16:14:52.259Z,9.03
2018-03-25T16:17:22.447Z,8.50
2018-03-25T16:19:51.679Z,7.27
2018-03-25T16:22:20.643Z,8.43
2018-03-25T16:24:49.775Z,9.73
2018-03-25T16:27:18.767Z,7.57
2018-03-25T16:29:47.890Z,8.90
2018-03-25T16:32:17.771Z,9.80
2018-03-25T16:34:46.972Z,7.60
2018-03-25T16:37:16.043Z,7.77
2018-03-25T16:39:45.343Z,7.80
2018-03-25T16:42:14.438Z,7.50
2018-03-25T16:44:44.255Z,7.90
2018-03-25T16:47:13.447Z,7.10
2018-03-25T16:49:42.779Z,6.93
2018-03-25T16:52:11.956Z,6.57
2018-03-25T16:54:41.182Z,8.13
2018-03-25T16:57:10.190Z,7.40
2018-03-25T16:59:40.296Z,7.47
2018-03-25T17:02:09.294Z,7.17
2018-03-25T17:04:38.567Z,7.37
2018-03-25T17:07:07.662Z,7.33
2018-03-25T17:09:36.794Z,7.63
2018-03-25T17:12:05.651Z,6.57
2018-03-25T17:14:35.627Z,6.40
2018-03-25T17:17:04.618Z,6.40
2018-03-25T17:19:34.096Z,6.60
2018-03-25T17:22:03.167Z,6.00
2018-03-25T17:24:32.875Z,6.00
2018-03-25T17:27:02.163Z,5.40
2018-03-25T17:29:31.579Z,5.73
2018-03-25T17:32:00.674Z,5.00
2018-03-25T17:34:29.983Z,5.50
2018-03-25T17:36:59.079Z,6.10
2018-03-25T17:39:29.155Z,5.53
2018-03-25T17:41:58.298Z,5.83
2018-03-25T17:44:27.627Z,6.43
2018-03-25T17:46:56.594Z,6.20
2018-03-25T17:49:25.995Z,5.47
2018-03-25T17:51:54.994Z,6.67
2018-03-25T17:54:24.909Z,5.20
2018-03-25T17:56:54.547Z,7.30
2018-03-25T17:59:23.575Z,6.57
2018-03-25T18:01:52.545Z,7.07
2018-03-25T18:04:21.672Z,6.37
2018-03-25T18:06:50.639Z,7.03
2018-03-25T18:09:19.763Z,7.13
2018-03-25T18:11:48.619Z,6.73
2018-03-25T18:14:17.827Z,7.10
2018-03-25T18:16:46.811Z,8.30
2018-03-25T18:19:15.996Z,6.93
2018-03-25T18:21:45.111Z,8.10
2018-03-25T18:24:14.673Z,7.90
2018-03-25T18:26:43.807Z,7.57
2018-03-25T18:29:12.979Z,8.30
2018-03-25T18:31:42.880Z,9.27
2018-03-25T18:34:12.224Z,8.13
2018-03-25T18:36:41.319Z,8.20
2018-03-25T18:39:10.495Z,9.47
2018-03-25T18:41:39.595Z,8.77
2018-03-25T18:44:09.568Z,9.10
2018-03-25T18:46:38.767Z,8.80
2018-03-25T18:49:08.687Z,8.50
2018-03-25T18:51:38.535Z,8.77
2018-03-25T18:54:07.843Z,8.20
2018-03-25T18:56:36.835Z,8.83
2018-03-25T18:59:06.135Z,9.40
2018-03-25T19:01:35.162Z,10.80
2018-03-25T19:04:04.291Z,9.53
2018-03-25T19:06:33.255Z,8.03
2018-03-25T19:09:02.351Z,9.00
2018-03-25T19:11:31.446Z,8.97
2018-03-25T19:14:00.307Z,9.40
2018-03-25T19:16:29.334Z,9.83
2018-03-25T19:18:58.431Z,9.00
2018-03-25T19:21:27.428Z,8.63
2018-03-25T19:23:56.803Z,7.93
2018-03-25T19:26:25.981Z,8.80
2018-03-25T19:28:55.256Z,8.60
2018-03-25T19:31:24.280Z,8.10
2018-03-25T19:33:53.697Z,8.40
2018-03-25T19:36:23.563Z,8.80
2018-03-25T19:38:52.602Z,8.97
2018-03-25T19:41:21.894Z,8.90
2018-03-25T19:43:51.865Z,7.97
2018-03-25T19:46:20.850Z,9.77
2018-03-25T19:48:50.079Z,9.80
2018-03-25T19:51:20.037Z,9.40
2018-03-25T19:53:49.367Z,10.03
2018-03-25T19:56:18.359Z,8.20
2018-03-25T19:58:47.663Z,8.63
2018-03-25T20:01:16.660Z,9.20
2018-03-25T20:03:45.936Z,9.03
2018-03-25T20:06:15.035Z,9.50
2018-03-25T20:08:45.110Z,8.40
2018-03-25T20:11:14.244Z,8.70
2018-03-25T20:13:43.479Z,8.93
2018-03-25T20:16:12.439Z,10.57
2018-03-25T20:18:41.744Z,9.60
2018-03-25T20:21:10.734Z,9.27
2018-03-25T20:23:39.977Z,8.97
2018-03-25T20:26:09.175Z,7.53
2018-03-25T20:28:37.987Z,9.90
2018-03-25T20:31:07.867Z,9.70
2018-03-25T20:33:36.963Z,10.60
2018-03-25T20:36:05.968Z,8.70
2018-03-25T20:38:35.335Z,8.40
2018-03-25T20:41:04.335Z,8.90
2018-03-25T20:43:33.565Z,9.10
2018-03-25T20:46:02.455Z,8.83
2018-03-25T20:48:32.438Z,9.23
2018-03-25T20:51:01.564Z,8.40
2018-03-25T20:53:30.659Z,10.00
2018-03-25T20:56:00.595Z,10.40
2018-03-25T20:58:30.075Z,9.87
2018-03-25T21:00:59.178Z,8.03
2018-03-25T21:03:28.384Z,10.60
2018-03-25T21:05:57.479Z,10.20
2018-03-25T21:08:26.582Z,9.10
2018-03-25T21:10:55.643Z,9.40
2018-03-25T21:13:25.728Z,9.77
2018-03-25T21:15:54.820Z,10.30
2018-03-25T21:18:24.634Z,9.93
2018-03-25T21:20:54.482Z,8.30
2018-03-25T21:23:23.791Z,8.00
2018-03-25T21:25:52.787Z,8.93
2018-03-25T21:28:21.986Z,8.87
2018-03-25T21:30:50.879Z,9.67
2018-03-25T21:33:20.106Z,9.30
2018-03-25T21:35:49.175Z,8.90
2018-03-25T21:38:18.943Z,8.53
2018-03-25T21:40:48.078Z,8.30
2018-03-25T21:43:17.412Z,8.17
2018-03-25T21:45:46.407Z,8.93
2018-03-25T21:48:15.684Z,8.87
2018-03-25T21:50:44.683Z,8.20
2018-03-25T21:53:13.875Z,8.20
2018-03-25T21:55:43.007Z,8.20
2018-03-25T21:58:12.134Z,8.10
2018-03-25T22:00:41.097Z,8.60
2018-03-25T22:03:10.322Z,8.50
2018-03-25T22:05:40.175Z,9.00
2018-03-25T22:08:09.742Z,8.70
2018-03-25T22:10:38.783Z,9.20
2018-03-25T22:13:08.246Z,8.30
2018-03-25T22:15:38.098Z,8.20
2018-03-25T22:18:07.226Z,9.30
2018-03-25T22:20:36.195Z,8.53
2018-03-25T22:23:05.523Z,8.77
2018-03-25T22:25:35.139Z,9.87
2018-03-25T22:28:04.262Z,8.40
2018-03-25T22:30:33.388Z,8.10
2018-03-25T22:33:03.419Z,9.03
2018-03-25T22:35:33.394Z,8.80
2018-03-25T22:38:02.663Z,8.90
2018-03-25T22:40:31.762Z,9.53
2018-03-25T22:43:00.939Z,8.37
2018-03-25T22:45:30.526Z,9.43
2018-03-25T22:47:59.655Z,8.93
2018-03-25T22:50:28.519Z,9.70
2018-03-25T22:52:57.830Z,10.43
2018-03-25T22:55:26.851Z,9.30
2018-03-25T22:57:56.155Z,10.20
2018-03-25T23:00:25.263Z,9.97
2018-03-25T23:02:54.558Z,10.30
2018-03-25T23:05:24.342Z,9.50
2018-03-25T23:07:53.545Z,9.33
2018-03-25T23:10:23.587Z,10.40
2018-03-25T23:12:52.759Z,10.70
2018-03-25T23:15:22.092Z,10.13
2018-03-25T23:17:51.191Z,9.97
2018-03-25T23:20:20.239Z,12.13
2018-03-25T23:22:49.346Z,12.30
2018-03-25T23:25:18.276Z,9.97
2018-03-25T23:27:47.403Z,10.10
2018-03-25T23:30:16.365Z,11.70
2018-03-25T23:32:45.635Z,11.30
2018-03-25T23:35:14.530Z,10.40
2018-03-25T23:37:43.691Z,11.40
2018-03-25T23:40:12.421Z,10.87
2018-03-25T23:42:41.717Z,11.40
2018-03-25T23:45:11.626Z,11.00
2018-03-25T23:47:40.728Z,11.63
2018-03-25T23:50:09.856Z,11.47
2018-03-25T23:52:39.022Z,11.00
2018-03-25T23:55:08.047Z,11.37
2018-03-25T23:57:37.322Z,11.77
